sensor_id;sensor_type;location;lat;lon;timestamp;P1;durP1;ratioP1;P2;durP2;ratioP2
75963;SDS011;65820;44.726;37.764;2023-03-23T00:00:17;4.53;;;1.90;;
75963;SDS011;65820;44.726;37.764;2023-03-23T00:01:21;3.55;;;1.55;;
75963;SDS011;65820;44.726;37.764;2023-03-23T00:02:29;3.90;;;1.80;;
75963;SDS011;65820;44.726;37.764;2023-03-23T00:03:36;6.28;;;1.92;;
75963;SDS011;65820;44.726;37.764;2023-03-23T00:04:39;4.80;;;1.70;;
75963;SDS011;65820;44.726;37.764;2023-03-23T00:05:40;4.07;;;1.70;;
75963;SDS011;65820;44.726;37.764;2023-03-23T00:06:42;3.80;;;1.60;;
75963;SDS011;65820;44.726;37.764;2023-03-23T00:07:46;6.40;;;1.80;;
75963;SDS011;65820;44.726;37.764;2023-03-23T00:08:48;3.55;;;1.65;;
75963;SDS011;65820;44.726;37.764;2023-03-23T00:09:54;5.03;;;1.95;;
75963;SDS011;65820;44.726;37.764;2023-03-23T00:10:56;4.28;;;1.70;;
75963;SDS011;65820;44.726;37.764;2023-03-23T00:11:57;4.82;;;1.70;;
75963;SDS011;65820;44.726;37.764;2023-03-23T00:13:05;4.00;;;1.60;;
75963;SDS011;65820;44.726;37.764;2023-03-23T00:14:07;3.60;;;1.60;;
75963;SDS011;65820;44.726;37.764;2023-03-23T00:15:13;3.97;;;1.80;;
75963;SDS011;65820;44.726;37.764;2023-03-23T00:16:20;4.82;;;1.92;;
75963;SDS011;65820;44.726;37.764;2023-03-23T00:17:30;5.85;;;1.90;;
75963;SDS011;65820;44.726;37.764;2023-03-23T00:18:33;5.60;;;2.00;;
75963;SDS011;65820;44.726;37.764;2023-03-23T00:19:39;5.00;;;1.80;;
75963;SDS011;65820;44.726;37.764;2023-03-23T00:20:47;4.43;;;1.73;;
75963;SDS011;65820;44.726;37.764;2023-03-23T00:21:50;4.47;;;1.73;;
75963;SDS011;65820;44.726;37.764;2023-03-23T00:22:54;3.92;;;1.67;;
75963;SDS011;65820;44.726;37.764;2023-03-23T00:24:04;4.05;;;1.90;;
75963;SDS011;65820;44.726;37.764;2023-03-23T00:25:09;4.15;;;1.70;;
75963;SDS011;65820;44.726;37.764;2023-03-23T00:26:11;4.93;;;1.88;;
75963;SDS011;65820;44.726;37.764;2023-03-23T00:27:13;4.22;;;1.80;;
75963;SDS011;65820;44.726;37.764;2023-03-23T00:28:16;5.20;;;1.98;;
75963;SDS011;65820;44.726;37.764;2023-03-23T00:29:20;4.30;;;2.25;;
75963;SDS011;65820;44.726;37.764;2023-03-23T00:30:26;4.10;;;1.80;;
75963;SDS011;65820;44.726;37.764;2023-03-23T00:31:27;5.35;;;2.30;;
75963;SDS011;65820;44.726;37.764;2023-03-23T00:32:33;4.20;;;1.90;;
75963;SDS011;65820;44.726;37.764;2023-03-23T00:33:37;3.83;;;1.83;;
75963;SDS011;65820;44.726;37.764;2023-03-23T00:34:39;4.13;;;1.70;;
75963;SDS011;65820;44.726;37.764;2023-03-23T00:35:42;4.38;;;1.98;;
75963;SDS011;65820;44.726;37.764;2023-03-23T00:36:48;3.72;;;1.73;;
75963;SDS011;65820;44.726;37.764;2023-03-23T00:37:51;4.78;;;2.33;;
75963;SDS011;65820;44.726;37.764;2023-03-23T00:38:54;5.07;;;1.80;;
75963;SDS011;65820;44.726;37.764;2023-03-23T00:39:58;5.63;;;1.73;;
75963;SDS011;65820;44.726;37.764;2023-03-23T00:42:04;3.97;;;1.83;;
75963;SDS011;65820;44.726;37.764;2023-03-23T00:43:06;3.95;;;2.03;;
75963;SDS011;65820;44.726;37.764;2023-03-23T00:44:09;4.38;;;1.95;;
75963;SDS011;65820;44.726;37.764;2023-03-23T00:45:10;4.22;;;1.60;;
75963;SDS011;65820;44.726;37.764;2023-03-23T00:46:12;5.07;;;2.05;;
75963;SDS011;65820;44.726;37.764;2023-03-23T00:47:14;5.07;;;2.10;;
75963;SDS011;65820;44.726;37.764;2023-03-23T00:48:21;4.57;;;1.90;;
75963;SDS011;65820;44.726;37.764;2023-03-23T00:49:24;5.40;;;2.10;;
75963;SDS011;65820;44.726;37.764;2023-03-23T00:50:26;5.90;;;2.00;;
75963;SDS011;65820;44.726;37.764;2023-03-23T00:51:28;5.05;;;1.95;;
75963;SDS011;65820;44.726;37.764;2023-03-23T00:52:29;4.53;;;1.95;;
75963;SDS011;65820;44.726;37.764;2023-03-23T00:53:32;4.22;;;1.75;;
75963;SDS011;65820;44.726;37.764;2023-03-23T00:54:34;5.00;;;2.00;;
75963;SDS011;65820;44.726;37.764;2023-03-23T00:55:42;6.30;;;1.75;;
75963;SDS011;65820;44.726;37.764;2023-03-23T00:56:44;4.80;;;1.75;;
75963;SDS011;65820;44.726;37.764;2023-03-23T00:57:46;3.70;;;1.90;;
75963;SDS011;65820;44.726;37.764;2023-03-23T00:58:49;4.50;;;2.05;;
75963;SDS011;65820;44.726;37.764;2023-03-23T00:59:51;4.95;;;2.00;;
75963;SDS011;65820;44.726;37.764;2023-03-23T01:00:53;6.25;;;1.98;;
75963;SDS011;65820;44.726;37.764;2023-03-23T01:01:54;3.97;;;1.83;;
75963;SDS011;65820;44.726;37.764;2023-03-23T01:02:56;5.45;;;2.10;;
75963;SDS011;65820;44.726;37.764;2023-03-23T01:03:58;5.15;;;1.90;;
75963;SDS011;65820;44.726;37.764;2023-03-23T01:05:05;3.88;;;1.77;;
75963;SDS011;65820;44.726;37.764;2023-03-23T01:06:08;4.65;;;1.75;;
75963;SDS011;65820;44.726;37.764;2023-03-23T01:07:20;4.68;;;2.05;;
75963;SDS011;65820;44.726;37.764;2023-03-23T01:08:40;5.32;;;2.03;;
75963;SDS011;65820;44.726;37.764;2023-03-23T01:09:46;4.85;;;1.98;;
75963;SDS011;65820;44.726;37.764;2023-03-23T01:10:49;4.60;;;2.28;;
75963;SDS011;65820;44.726;37.764;2023-03-23T01:11:52;3.90;;;1.75;;
75963;SDS011;65820;44.726;37.764;2023-03-23T01:12:56;6.65;;;2.45;;
75963;SDS011;65820;44.726;37.764;2023-03-23T01:13:57;6.70;;;2.50;;
75963;SDS011;65820;44.726;37.764;2023-03-23T01:14:59;4.50;;;2.30;;
75963;SDS011;65820;44.726;37.764;2023-03-23T01:16:01;6.32;;;2.30;;
75963;SDS011;65820;44.726;37.764;2023-03-23T01:17:03;7.22;;;2.30;;
75963;SDS011;65820;44.726;37.764;2023-03-23T01:18:06;4.85;;;1.88;;
75963;SDS011;65820;44.726;37.764;2023-03-23T01:19:07;4.43;;;1.73;;
75963;SDS011;65820;44.726;37.764;2023-03-23T01:20:11;4.68;;;2.20;;
75963;SDS011;65820;44.726;37.764;2023-03-23T01:21:19;4.38;;;2.40;;
75963;SDS011;65820;44.726;37.764;2023-03-23T01:22:24;5.40;;;2.00;;
75963;SDS011;65820;44.726;37.764;2023-03-23T01:23:25;4.80;;;2.30;;
75963;SDS011;65820;44.726;37.764;2023-03-23T01:24:27;5.90;;;2.60;;
75963;SDS011;65820;44.726;37.764;2023-03-23T01:25:29;3.97;;;1.85;;
75963;SDS011;65820;44.726;37.764;2023-03-23T01:26:32;5.88;;;2.60;;
75963;SDS011;65820;44.726;37.764;2023-03-23T01:27:33;4.75;;;2.15;;
75963;SDS011;65820;44.726;37.764;2023-03-23T01:28:35;4.97;;;2.08;;
75963;SDS011;65820;44.726;37.764;2023-03-23T01:29:37;4.57;;;2.22;;
75963;SDS011;65820;44.726;37.764;2023-03-23T01:30:39;5.57;;;2.58;;
75963;SDS011;65820;44.726;37.764;2023-03-23T01:31:40;6.05;;;2.33;;
75963;SDS011;65820;44.726;37.764;2023-03-23T01:32:43;5.75;;;2.40;;
75963;SDS011;65820;44.726;37.764;2023-03-23T01:33:45;5.35;;;2.20;;
75963;SDS011;65820;44.726;37.764;2023-03-23T01:34:46;4.95;;;2.13;;
75963;SDS011;65820;44.726;37.764;2023-03-23T01:35:48;5.57;;;2.53;;
75963;SDS011;65820;44.726;37.764;2023-03-23T01:36:49;5.70;;;2.28;;
75963;SDS011;65820;44.726;37.764;2023-03-23T01:37:51;5.38;;;2.30;;
75963;SDS011;65820;44.726;37.764;2023-03-23T01:38:52;7.75;;;2.38;;
75963;SDS011;65820;44.726;37.764;2023-03-23T01:39:55;4.40;;;2.28;;
75963;SDS011;65820;44.726;37.764;2023-03-23T01:40:57;4.57;;;2.28;;
75963;SDS011;65820;44.726;37.764;2023-03-23T01:41:59;6.22;;;2.55;;
75963;SDS011;65820;44.726;37.764;2023-03-23T01:43:01;5.13;;;2.20;;
75963;SDS011;65820;44.726;37.764;2023-03-23T01:44:04;4.90;;;2.28;;
75963;SDS011;65820;44.726;37.764;2023-03-23T01:46:27;5.80;;;2.88;;
75963;SDS011;65820;44.726;37.764;2023-03-23T01:47:31;5.55;;;2.67;;
75963;SDS011;65820;44.726;37.764;2023-03-23T01:48:34;5.20;;;2.38;;
75963;SDS011;65820;44.726;37.764;2023-03-23T01:49:38;5.32;;;2.10;;
75963;SDS011;65820;44.726;37.764;2023-03-23T01:50:50;4.45;;;2.15;;
75963;SDS011;65820;44.726;37.764;2023-03-23T01:52:02;5.05;;;2.40;;
75963;SDS011;65820;44.726;37.764;2023-03-23T01:53:20;4.65;;;2.10;;
75963;SDS011;65820;44.726;37.764;2023-03-23T01:54:23;5.28;;;2.20;;
75963;SDS011;65820;44.726;37.764;2023-03-23T01:55:26;5.47;;;2.40;;
75963;SDS011;65820;44.726;37.764;2023-03-23T01:56:31;7.03;;;2.88;;
75963;SDS011;65820;44.726;37.764;2023-03-23T01:57:41;5.32;;;2.55;;
75963;SDS011;65820;44.726;37.764;2023-03-23T01:58:43;5.95;;;2.30;;
75963;SDS011;65820;44.726;37.764;2023-03-23T01:59:46;4.60;;;2.38;;
75963;SDS011;65820;44.726;37.764;2023-03-23T02:01:00;4.85;;;2.28;;
75963;SDS011;65820;44.726;37.764;2023-03-23T02:02:05;4.97;;;2.25;;
75963;SDS011;65820;44.726;37.764;2023-03-23T02:03:06;6.22;;;2.78;;
75963;SDS011;65820;44.726;37.764;2023-03-23T02:04:09;5.30;;;2.22;;
75963;SDS011;65820;44.726;37.764;2023-03-23T02:05:24;5.45;;;2.30;;
75963;SDS011;65820;44.726;37.764;2023-03-23T02:06:30;5.63;;;2.58;;
75963;SDS011;65820;44.726;37.764;2023-03-23T02:07:45;4.55;;;2.25;;
75963;SDS011;65820;44.726;37.764;2023-03-23T02:08:49;6.78;;;2.70;;
75963;SDS011;65820;44.726;37.764;2023-03-23T02:09:51;5.63;;;2.33;;
75963;SDS011;65820;44.726;37.764;2023-03-23T02:10:53;7.07;;;2.78;;
75963;SDS011;65820;44.726;37.764;2023-03-23T02:11:55;6.85;;;2.38;;
75963;SDS011;65820;44.726;37.764;2023-03-23T02:12:58;5.53;;;3.10;;
75963;SDS011;65820;44.726;37.764;2023-03-23T02:14:01;6.40;;;2.60;;
75963;SDS011;65820;44.726;37.764;2023-03-23T02:15:04;6.82;;;2.65;;
75963;SDS011;65820;44.726;37.764;2023-03-23T02:16:15;6.18;;;2.50;;
75963;SDS011;65820;44.726;37.764;2023-03-23T02:17:27;6.70;;;2.65;;
75963;SDS011;65820;44.726;37.764;2023-03-23T02:20:13;6.50;;;2.70;;
75963;SDS011;65820;44.726;37.764;2023-03-23T02:25:58;8.00;;;2.60;;
75963;SDS011;65820;44.726;37.764;2023-03-23T02:27:27;5.13;;;2.70;;
75963;SDS011;65820;44.726;37.764;2023-03-23T02:34:18;6.38;;;2.88;;
75963;SDS011;65820;44.726;37.764;2023-03-23T02:35:28;5.93;;;2.70;;
75963;SDS011;65820;44.726;37.764;2023-03-23T02:37:57;5.15;;;2.60;;
75963;SDS011;65820;44.726;37.764;2023-03-23T02:40:35;6.20;;;2.85;;
75963;SDS011;65820;44.726;37.764;2023-03-23T02:41:43;5.07;;;2.50;;
75963;SDS011;65820;44.726;37.764;2023-03-23T02:42:50;5.68;;;2.72;;
75963;SDS011;65820;44.726;37.764;2023-03-23T02:43:55;6.03;;;2.70;;
75963;SDS011;65820;44.726;37.764;2023-03-23T02:46:04;5.80;;;2.63;;
75963;SDS011;65820;44.726;37.764;2023-03-23T02:47:11;6.05;;;2.85;;
75963;SDS011;65820;44.726;37.764;2023-03-23T02:48:17;6.60;;;3.05;;
75963;SDS011;65820;44.726;37.764;2023-03-23T02:49:23;5.22;;;2.42;;
75963;SDS011;65820;44.726;37.764;2023-03-23T02:50:28;7.68;;;2.50;;
75963;SDS011;65820;44.726;37.764;2023-03-23T02:51:32;6.50;;;3.25;;
75963;SDS011;65820;44.726;37.764;2023-03-23T02:52:36;7.55;;;2.90;;
75963;SDS011;65820;44.726;37.764;2023-03-23T02:53:42;6.40;;;3.13;;
75963;SDS011;65820;44.726;37.764;2023-03-23T02:55:48;7.00;;;3.10;;
75963;SDS011;65820;44.726;37.764;2023-03-23T02:56:55;5.22;;;2.60;;
75963;SDS011;65820;44.726;37.764;2023-03-23T02:58:02;7.30;;;3.40;;
75963;SDS011;65820;44.726;37.764;2023-03-23T02:59:04;5.57;;;2.92;;
75963;SDS011;65820;44.726;37.764;2023-03-23T03:00:07;4.97;;;2.47;;
75963;SDS011;65820;44.726;37.764;2023-03-23T03:01:54;6.50;;;2.83;;
75963;SDS011;65820;44.726;37.764;2023-03-23T03:02:40;6.82;;;3.03;;
75963;SDS011;65820;44.726;37.764;2023-03-23T03:03:44;5.95;;;2.90;;
75963;SDS011;65820;44.726;37.764;2023-03-23T03:07:36;6.80;;;3.00;;
75963;SDS011;65820;44.726;37.764;2023-03-23T03:09:02;6.82;;;2.83;;
75963;SDS011;65820;44.726;37.764;2023-03-23T03:10:25;5.80;;;3.30;;
75963;SDS011;65820;44.726;37.764;2023-03-23T03:11:38;5.50;;;2.50;;
75963;SDS011;65820;44.726;37.764;2023-03-23T03:14:08;6.70;;;2.97;;
75963;SDS011;65820;44.726;37.764;2023-03-23T03:15:26;6.82;;;2.83;;
75963;SDS011;65820;44.726;37.764;2023-03-23T03:16:40;6.60;;;3.05;;
75963;SDS011;65820;44.726;37.764;2023-03-23T03:17:55;5.15;;;2.67;;
75963;SDS011;65820;44.726;37.764;2023-03-23T03:19:09;6.53;;;3.13;;
75963;SDS011;65820;44.726;37.764;2023-03-23T03:20:12;5.80;;;3.17;;
75963;SDS011;65820;44.726;37.764;2023-03-23T03:21:16;5.88;;;2.90;;
75963;SDS011;65820;44.726;37.764;2023-03-23T03:22:21;6.07;;;2.83;;
75963;SDS011;65820;44.726;37.764;2023-03-23T03:23:24;7.65;;;2.80;;
75963;SDS011;65820;44.726;37.764;2023-03-23T03:24:30;5.97;;;3.08;;
75963;SDS011;65820;44.726;37.764;2023-03-23T03:25:33;7.43;;;2.85;;
75963;SDS011;65820;44.726;37.764;2023-03-23T03:27:56;6.43;;;3.08;;
75963;SDS011;65820;44.726;37.764;2023-03-23T03:29:20;6.75;;;2.85;;
75963;SDS011;65820;44.726;37.764;2023-03-23T03:30:27;6.05;;;3.28;;
75963;SDS011;65820;44.726;37.764;2023-03-23T03:31:36;6.75;;;3.10;;
75963;SDS011;65820;44.726;37.764;2023-03-23T03:32:42;7.93;;;3.13;;
75963;SDS011;65820;44.726;37.764;2023-03-23T03:33:48;5.57;;;2.67;;
75963;SDS011;65820;44.726;37.764;2023-03-23T03:34:50;6.38;;;3.40;;
75963;SDS011;65820;44.726;37.764;2023-03-23T03:35:53;5.78;;;2.80;;
75963;SDS011;65820;44.726;37.764;2023-03-23T03:36:56;7.55;;;3.83;;
75963;SDS011;65820;44.726;37.764;2023-03-23T03:38:04;7.63;;;3.25;;
75963;SDS011;65820;44.726;37.764;2023-03-23T03:39:08;10.85;;;3.60;;
75963;SDS011;65820;44.726;37.764;2023-03-23T03:40:15;8.18;;;3.15;;
75963;SDS011;65820;44.726;37.764;2023-03-23T03:41:19;7.20;;;3.05;;
75963;SDS011;65820;44.726;37.764;2023-03-23T03:42:22;8.07;;;3.47;;
75963;SDS011;65820;44.726;37.764;2023-03-23T03:43:26;6.03;;;3.00;;
75963;SDS011;65820;44.726;37.764;2023-03-23T03:44:27;6.57;;;3.10;;
75963;SDS011;65820;44.726;37.764;2023-03-23T03:45:30;7.03;;;3.25;;
75963;SDS011;65820;44.726;37.764;2023-03-23T03:46:33;6.18;;;2.80;;
75963;SDS011;65820;44.726;37.764;2023-03-23T03:47:35;5.95;;;2.78;;
75963;SDS011;65820;44.726;37.764;2023-03-23T03:48:37;7.55;;;3.03;;
75963;SDS011;65820;44.726;37.764;2023-03-23T03:49:39;6.90;;;2.97;;
75963;SDS011;65820;44.726;37.764;2023-03-23T03:50:41;6.70;;;2.83;;
75963;SDS011;65820;44.726;37.764;2023-03-23T03:51:43;5.95;;;2.78;;
75963;SDS011;65820;44.726;37.764;2023-03-23T03:52:54;7.32;;;3.35;;
75963;SDS011;65820;44.726;37.764;2023-03-23T03:53:56;9.00;;;3.53;;
75963;SDS011;65820;44.726;37.764;2023-03-23T03:54:58;7.60;;;3.47;;
75963;SDS011;65820;44.726;37.764;2023-03-23T03:56:01;8.00;;;3.40;;
75963;SDS011;65820;44.726;37.764;2023-03-23T03:57:09;6.45;;;3.08;;
75963;SDS011;65820;44.726;37.764;2023-03-23T03:58:30;7.15;;;3.22;;
75963;SDS011;65820;44.726;37.764;2023-03-23T03:59:58;8.32;;;3.60;;
75963;SDS011;65820;44.726;37.764;2023-03-23T04:01:19;5.97;;;3.10;;
75963;SDS011;65820;44.726;37.764;2023-03-23T04:02:25;6.00;;;3.05;;
75963;SDS011;65820;44.726;37.764;2023-03-23T04:03:28;7.13;;;3.45;;
75963;SDS011;65820;44.726;37.764;2023-03-23T04:04:41;6.53;;;3.03;;
75963;SDS011;65820;44.726;37.764;2023-03-23T04:05:44;9.18;;;3.13;;
75963;SDS011;65820;44.726;37.764;2023-03-23T04:07:50;8.23;;;3.00;;
75963;SDS011;65820;44.726;37.764;2023-03-23T04:08:58;8.32;;;3.28;;
75963;SDS011;65820;44.726;37.764;2023-03-23T04:10:02;7.78;;;3.10;;
75963;SDS011;65820;44.726;37.764;2023-03-23T04:11:06;5.88;;;3.00;;
75963;SDS011;65820;44.726;37.764;2023-03-23T04:12:11;8.55;;;3.17;;
75963;SDS011;65820;44.726;37.764;2023-03-23T04:13:31;8.90;;;3.10;;
75963;SDS011;65820;44.726;37.764;2023-03-23T04:14:41;7.80;;;2.88;;
75963;SDS011;65820;44.726;37.764;2023-03-23T04:15:44;7.78;;;3.10;;
75963;SDS011;65820;44.726;37.764;2023-03-23T04:16:47;9.10;;;3.33;;
75963;SDS011;65820;44.726;37.764;2023-03-23T04:17:48;10.07;;;3.47;;
75963;SDS011;65820;44.726;37.764;2023-03-23T04:18:51;8.50;;;3.20;;
75963;SDS011;65820;44.726;37.764;2023-03-23T04:19:53;10.10;;;3.25;;
75963;SDS011;65820;44.726;37.764;2023-03-23T04:21:01;9.52;;;3.42;;
75963;SDS011;65820;44.726;37.764;2023-03-23T04:22:04;7.40;;;3.03;;
75963;SDS011;65820;44.726;37.764;2023-03-23T04:23:09;7.65;;;3.17;;
75963;SDS011;65820;44.726;37.764;2023-03-23T04:24:11;6.85;;;3.35;;
75963;SDS011;65820;44.726;37.764;2023-03-23T04:25:13;7.97;;;3.13;;
75963;SDS011;65820;44.726;37.764;2023-03-23T04:26:16;8.52;;;3.20;;
75963;SDS011;65820;44.726;37.764;2023-03-23T04:27:23;6.95;;;2.85;;
75963;SDS011;65820;44.726;37.764;2023-03-23T04:28:25;6.85;;;2.78;;
75963;SDS011;65820;44.726;37.764;2023-03-23T04:29:51;9.35;;;3.33;;
75963;SDS011;65820;44.726;37.764;2023-03-23T04:31:10;8.30;;;3.10;;
75963;SDS011;65820;44.726;37.764;2023-03-23T04:32:17;8.57;;;3.40;;
75963;SDS011;65820;44.726;37.764;2023-03-23T04:33:25;7.80;;;3.58;;
75963;SDS011;65820;44.726;37.764;2023-03-23T04:34:28;8.07;;;2.83;;
75963;SDS011;65820;44.726;37.764;2023-03-23T04:35:33;6.28;;;2.90;;
75963;SDS011;65820;44.726;37.764;2023-03-23T04:36:47;6.65;;;2.92;;
75963;SDS011;65820;44.726;37.764;2023-03-23T04:37:55;9.65;;;3.30;;
75963;SDS011;65820;44.726;37.764;2023-03-23T04:38:57;7.75;;;3.50;;
75963;SDS011;65820;44.726;37.764;2023-03-23T04:39:59;7.28;;;3.20;;
75963;SDS011;65820;44.726;37.764;2023-03-23T04:41:02;7.43;;;3.17;;
75963;SDS011;65820;44.726;37.764;2023-03-23T04:42:33;9.60;;;3.30;;
75963;SDS011;65820;44.726;37.764;2023-03-23T04:44:04;7.30;;;3.33;;
75963;SDS011;65820;44.726;37.764;2023-03-23T04:45:14;9.13;;;3.15;;
75963;SDS011;65820;44.726;37.764;2023-03-23T04:46:17;8.90;;;3.20;;
75963;SDS011;65820;44.726;37.764;2023-03-23T04:47:20;7.03;;;3.13;;
75963;SDS011;65820;44.726;37.764;2023-03-23T04:48:29;7.20;;;3.03;;
75963;SDS011;65820;44.726;37.764;2023-03-23T04:50:00;6.97;;;3.10;;
75963;SDS011;65820;44.726;37.764;2023-03-23T04:51:11;9.50;;;2.95;;
75963;SDS011;65820;44.726;37.764;2023-03-23T04:52:14;7.97;;;3.13;;
75963;SDS011;65820;44.726;37.764;2023-03-23T04:53:23;6.82;;;3.35;;
75963;SDS011;65820;44.726;37.764;2023-03-23T04:54:24;7.45;;;3.33;;
75963;SDS011;65820;44.726;37.764;2023-03-23T04:55:34;5.45;;;2.55;;
75963;SDS011;65820;44.726;37.764;2023-03-23T04:56:41;6.75;;;3.15;;
75963;SDS011;65820;44.726;37.764;2023-03-23T04:57:47;7.00;;;3.30;;
75963;SDS011;65820;44.726;37.764;2023-03-23T04:59:03;7.72;;;2.85;;
75963;SDS011;65820;44.726;37.764;2023-03-23T05:00:16;6.63;;;2.70;;
75963;SDS011;65820;44.726;37.764;2023-03-23T05:01:23;7.97;;;3.00;;
75963;SDS011;65820;44.726;37.764;2023-03-23T05:03:00;6.35;;;2.83;;
75963;SDS011;65820;44.726;37.764;2023-03-23T05:04:05;8.93;;;3.05;;
75963;SDS011;65820;44.726;37.764;2023-03-23T05:05:07;10.63;;;3.17;;
75963;SDS011;65820;44.726;37.764;2023-03-23T05:06:11;7.43;;;2.90;;
75963;SDS011;65820;44.726;37.764;2023-03-23T05:07:13;5.90;;;2.83;;
75963;SDS011;65820;44.726;37.764;2023-03-23T05:08:21;8.82;;;3.22;;
75963;SDS011;65820;44.726;37.764;2023-03-23T05:09:25;5.95;;;3.08;;
75963;SDS011;65820;44.726;37.764;2023-03-23T05:10:27;7.68;;;3.10;;
75963;SDS011;65820;44.726;37.764;2023-03-23T05:11:35;5.85;;;2.63;;
75963;SDS011;65820;44.726;37.764;2023-03-23T05:12:37;7.63;;;2.55;;
75963;SDS011;65820;44.726;37.764;2023-03-23T05:13:42;7.13;;;2.80;;
75963;SDS011;65820;44.726;37.764;2023-03-23T05:14:46;8.68;;;2.47;;
75963;SDS011;65820;44.726;37.764;2023-03-23T05:15:51;7.70;;;3.00;;
75963;SDS011;65820;44.726;37.764;2023-03-23T05:16:52;5.57;;;2.70;;
75963;SDS011;65820;44.726;37.764;2023-03-23T05:17:55;6.65;;;2.53;;
75963;SDS011;65820;44.726;37.764;2023-03-23T05:18:56;8.15;;;2.85;;
75963;SDS011;65820;44.726;37.764;2023-03-23T05:20:01;5.95;;;2.50;;
75963;SDS011;65820;44.726;37.764;2023-03-23T05:21:17;8.60;;;2.50;;
75963;SDS011;65820;44.726;37.764;2023-03-23T05:22:26;7.45;;;2.60;;
75963;SDS011;65820;44.726;37.764;2023-03-23T05:23:28;5.50;;;2.55;;
75963;SDS011;65820;44.726;37.764;2023-03-23T05:24:39;4.82;;;2.40;;
75963;SDS011;65820;44.726;37.764;2023-03-23T05:25:41;6.78;;;2.75;;
75963;SDS011;65820;44.726;37.764;2023-03-23T05:26:49;5.88;;;2.53;;
75963;SDS011;65820;44.726;37.764;2023-03-23T05:29:27;6.07;;;2.90;;
75963;SDS011;65820;44.726;37.764;2023-03-23T05:30:34;5.88;;;2.42;;
75963;SDS011;65820;44.726;37.764;2023-03-23T05:31:37;5.57;;;2.70;;
75963;SDS011;65820;44.726;37.764;2023-03-23T05:32:38;6.93;;;2.80;;
75963;SDS011;65820;44.726;37.764;2023-03-23T05:33:57;5.55;;;2.67;;
75963;SDS011;65820;44.726;37.764;2023-03-23T05:35:07;5.13;;;2.58;;
75963;SDS011;65820;44.726;37.764;2023-03-23T05:36:08;7.47;;;2.58;;
75963;SDS011;65820;44.726;37.764;2023-03-23T05:37:40;5.13;;;2.40;;
75963;SDS011;65820;44.726;37.764;2023-03-23T05:38:44;5.13;;;2.80;;
75963;SDS011;65820;44.726;37.764;2023-03-23T05:39:50;7.00;;;2.95;;
75963;SDS011;65820;44.726;37.764;2023-03-23T05:40:59;5.63;;;2.45;;
75963;SDS011;65820;44.726;37.764;2023-03-23T05:42:11;6.93;;;2.38;;
75963;SDS011;65820;44.726;37.764;2023-03-23T05:43:39;6.10;;;2.70;;
75963;SDS011;65820;44.726;37.764;2023-03-23T05:44:48;6.30;;;2.53;;
75963;SDS011;65820;44.726;37.764;2023-03-23T05:45:50;6.03;;;2.17;;
75963;SDS011;65820;44.726;37.764;2023-03-23T05:46:51;6.63;;;2.63;;
75963;SDS011;65820;44.726;37.764;2023-03-23T05:47:53;6.95;;;2.50;;
75963;SDS011;65820;44.726;37.764;2023-03-23T05:48:56;6.53;;;2.35;;
75963;SDS011;65820;44.726;37.764;2023-03-23T05:50:05;5.65;;;2.85;;
75963;SDS011;65820;44.726;37.764;2023-03-23T05:51:09;6.03;;;2.38;;
75963;SDS011;65820;44.726;37.764;2023-03-23T05:52:14;5.40;;;2.50;;
75963;SDS011;65820;44.726;37.764;2023-03-23T05:53:16;6.32;;;2.50;;
75963;SDS011;65820;44.726;37.764;2023-03-23T05:54:18;6.25;;;2.40;;
75963;SDS011;65820;44.726;37.764;2023-03-23T05:55:22;6.97;;;2.60;;
75963;SDS011;65820;44.726;37.764;2023-03-23T05:56:33;6.18;;;2.38;;
75963;SDS011;65820;44.726;37.764;2023-03-23T05:57:41;6.00;;;2.22;;
75963;SDS011;65820;44.726;37.764;2023-03-23T05:58:54;5.00;;;2.65;;
75963;SDS011;65820;44.726;37.764;2023-03-23T05:59:55;4.95;;;2.30;;
75963;SDS011;65820;44.726;37.764;2023-03-23T06:00:59;5.07;;;2.30;;
75963;SDS011;65820;44.726;37.764;2023-03-23T06:02:04;4.78;;;2.10;;
75963;SDS011;65820;44.726;37.764;2023-03-23T06:03:06;5.43;;;2.80;;
75963;SDS011;65820;44.726;37.764;2023-03-23T06:04:16;6.50;;;2.40;;
75963;SDS011;65820;44.726;37.764;2023-03-23T06:05:36;6.07;;;2.50;;
75963;SDS011;65820;44.726;37.764;2023-03-23T06:06:45;5.13;;;2.50;;
75963;SDS011;65820;44.726;37.764;2023-03-23T06:07:46;5.25;;;2.15;;
75963;SDS011;65820;44.726;37.764;2023-03-23T06:08:48;5.22;;;2.35;;
75963;SDS011;65820;44.726;37.764;2023-03-23T06:09:53;6.32;;;2.40;;
75963;SDS011;65820;44.726;37.764;2023-03-23T06:12:27;4.32;;;2.00;;
75963;SDS011;65820;44.726;37.764;2023-03-23T06:13:47;5.32;;;2.30;;
75963;SDS011;65820;44.726;37.764;2023-03-23T06:14:49;7.35;;;2.25;;
75963;SDS011;65820;44.726;37.764;2023-03-23T06:15:57;5.07;;;2.33;;
75963;SDS011;65820;44.726;37.764;2023-03-23T06:17:17;6.90;;;2.90;;
75963;SDS011;65820;44.726;37.764;2023-03-23T06:18:26;5.70;;;2.40;;
75963;SDS011;65820;44.726;37.764;2023-03-23T06:19:39;5.35;;;2.60;;
75963;SDS011;65820;44.726;37.764;2023-03-23T06:20:47;4.72;;;2.40;;
75963;SDS011;65820;44.726;37.764;2023-03-23T06:22:09;4.45;;;2.25;;
75963;SDS011;65820;44.726;37.764;2023-03-23T06:23:29;6.93;;;2.30;;
75963;SDS011;65820;44.726;37.764;2023-03-23T06:24:32;5.15;;;2.75;;
75963;SDS011;65820;44.726;37.764;2023-03-23T06:25:34;4.32;;;1.95;;
75963;SDS011;65820;44.726;37.764;2023-03-23T06:26:36;4.93;;;2.03;;
75963;SDS011;65820;44.726;37.764;2023-03-23T06:27:43;5.85;;;2.70;;
75963;SDS011;65820;44.726;37.764;2023-03-23T06:28:47;5.32;;;2.30;;
75963;SDS011;65820;44.726;37.764;2023-03-23T06:29:49;5.20;;;2.30;;
75963;SDS011;65820;44.726;37.764;2023-03-23T06:30:51;4.78;;;2.33;;
75963;SDS011;65820;44.726;37.764;2023-03-23T06:31:57;6.13;;;2.75;;
75963;SDS011;65820;44.726;37.764;2023-03-23T06:33:02;5.22;;;2.15;;
75963;SDS011;65820;44.726;37.764;2023-03-23T06:34:28;5.60;;;2.47;;
75963;SDS011;65820;44.726;37.764;2023-03-23T06:35:49;5.18;;;2.63;;
75963;SDS011;65820;44.726;37.764;2023-03-23T06:37:03;5.88;;;2.58;;
75963;SDS011;65820;44.726;37.764;2023-03-23T06:38:11;5.50;;;2.50;;
75963;SDS011;65820;44.726;37.764;2023-03-23T06:39:22;5.20;;;2.08;;
75963;SDS011;65820;44.726;37.764;2023-03-23T06:40:51;6.22;;;2.28;;
75963;SDS011;65820;44.726;37.764;2023-03-23T06:41:53;5.13;;;2.40;;
75963;SDS011;65820;44.726;37.764;2023-03-23T06:42:57;4.10;;;1.70;;
75963;SDS011;65820;44.726;37.764;2023-03-23T06:44:23;6.40;;;2.65;;
75963;SDS011;65820;44.726;37.764;2023-03-23T06:45:25;5.20;;;2.25;;
75963;SDS011;65820;44.726;37.764;2023-03-23T06:46:39;5.32;;;2.13;;
75963;SDS011;65820;44.726;37.764;2023-03-23T06:47:54;5.13;;;2.22;;
75963;SDS011;65820;44.726;37.764;2023-03-23T06:48:56;5.45;;;2.72;;
75963;SDS011;65820;44.726;37.764;2023-03-23T06:50:08;5.15;;;2.00;;
75963;SDS011;65820;44.726;37.764;2023-03-23T06:51:11;4.32;;;2.05;;
75963;SDS011;65820;44.726;37.764;2023-03-23T06:52:14;5.82;;;2.33;;
75963;SDS011;65820;44.726;37.764;2023-03-23T06:53:19;6.55;;;2.95;;
75963;SDS011;65820;44.726;37.764;2023-03-23T06:54:22;5.95;;;2.40;;
75963;SDS011;65820;44.726;37.764;2023-03-23T06:55:24;4.90;;;2.30;;
75963;SDS011;65820;44.726;37.764;2023-03-23T06:56:25;4.57;;;2.20;;
75963;SDS011;65820;44.726;37.764;2023-03-23T06:57:27;4.93;;;2.17;;
75963;SDS011;65820;44.726;37.764;2023-03-23T06:58:30;4.30;;;2.08;;
75963;SDS011;65820;44.726;37.764;2023-03-23T06:59:32;5.40;;;2.45;;
75963;SDS011;65820;44.726;37.764;2023-03-23T07:00:34;5.47;;;2.35;;
75963;SDS011;65820;44.726;37.764;2023-03-23T07:01:36;6.65;;;2.17;;
75963;SDS011;65820;44.726;37.764;2023-03-23T07:02:38;5.18;;;2.22;;